Time;durP1;ratioP1;P1;durP2;ratioP2;P2;SDS_P1;SDS_P2;PMS_P1;PMS_P2;Temp;Humidity;BMP_temperature;BMP_pressure;BME280_temperature;BME280_humidity;BME280_pressure;Samples;Min_cycle;Max_cycle;Signal;HPM_P1;HPM_P2
2021/11/14 00:01:46;;;;;;;11.75;7.43;;;;;;;11.29;91.94;101277.78;5034636;28;20045;-66
2021/11/14 00:04:14;;;;;;;13.82;7.82;;;;;;;11.55;91.67;101278.09;5034743;28;20045;-64
2021/11/14 00:06:44;;;;;;;12.55;7.43;;;;;;;11.62;91.14;101278.50;5034303;28;20504;-64
2021/11/14 00:09:13;;;;;;;12.77;7.72;;;;;;;11.52;90.71;101286.16;5030671;28;20484;-64
2021/11/14 00:11:40;;;;;;;17.17;8.52;;;;;;;11.31;91.87;101283.78;5038982;28;20053;-64
2021/11/14 00:14:09;;;;;;;13.98;7.78;;;;;;;11.49;91.38;101281.28;5034164;28;20148;-65
2021/11/14 00:16:38;;;;;;;11.05;7.85;;;;;;;11.41;90.76;101280.03;5074753;28;20050;-66
2021/11/14 00:19:05;;;;;;;14.60;8.38;;;;;;;11.27;91.14;101285.53;5056798;28;20382;-65
2021/11/14 00:21:35;;;;;;;10.25;7.10;;;;;;;11.24;92.12;101275.09;5058002;28;20053;-63
2021/11/14 00:24:03;;;;;;;11.10;8.10;;;;;;;11.32;92.00;101279.91;5050338;28;20045;-66
2021/11/14 00:26:30;;;;;;;14.20;8.25;;;;;;;11.14;92.26;101268.97;5043316;28;20504;-65
2021/11/14 00:28:58;;;;;;;14.73;8.57;;;;;;;10.89;94.08;101283.19;5042195;28;20047;-65
2021/11/14 00:31:25;;;;;;;15.65;8.43;;;;;;;10.63;95.56;101280.06;5028789;28;20056;-63
2021/11/14 00:33:53;;;;;;;11.60;8.15;;;;;;;10.56;96.87;101282.38;5036594;28;20046;-64
2021/11/14 00:36:23;;;;;;;15.30;8.48;;;;;;;10.56;97.37;101278.78;5036482;28;20045;-64
2021/11/14 00:38:51;;;;;;;18.00;8.73;;;;;;;10.80;96.78;101287.75;5047452;28;20051;-64
2021/11/14 00:41:21;;;;;;;15.27;8.35;;;;;;;10.99;95.27;101289.34;5041312;28;20041;-62
2021/11/14 00:43:49;;;;;;;15.50;8.77;;;;;;;11.13;93.60;101284.69;5037655;28;20060;-65
2021/11/14 00:46:17;;;;;;;11.52;8.30;;;;;;;11.15;93.55;101278.88;5037814;28;20042;-63
2021/11/14 00:48:47;;;;;;;16.15;7.97;;;;;;;11.20;92.87;101285.13;5036266;28;20072;-62
2021/11/14 00:51:24;;;;;;;13.73;8.05;;;;;;;11.44;91.48;101281.38;5037716;28;20061;-62
2021/11/14 00:53:51;;;;;;;15.98;8.95;;;;;;;10.87;93.43;101282.66;5047334;28;20551;-63
2021/11/14 00:56:19;;;;;;;11.73;8.15;;;;;;;10.98;94.29;101284.16;5042520;28;20049;-62
2021/11/14 00:58:46;;;;;;;11.20;7.70;;;;;;;11.12;93.89;101283.03;5041319;28;20053;-63
2021/11/14 01:01:14;;;;;;;11.10;7.75;;;;;;;11.11;92.92;101283.34;5046227;28;20036;-62
2021/11/14 01:03:41;;;;;;;13.48;7.45;;;;;;;11.19;92.22;101277.16;5052166;28;20049;-63
2021/11/14 01:06:09;;;;;;;12.90;8.02;;;;;;;10.99;92.92;101281.09;5034985;28;20041;-62
2021/11/14 01:08:37;;;;;;;12.32;7.63;;;;;;;10.82;94.14;101278.06;5039335;28;20072;-62
2021/11/14 01:11:05;;;;;;;9.68;6.95;;;;;;;11.05;93.85;101277.09;5051875;28;20060;-63
2021/11/14 01:13:33;;;;;;;10.85;7.68;;;;;;;11.09;92.64;101280.91;5055919;28;20582;-63
2021/11/14 01:16:01;;;;;;;10.55;7.18;;;;;;;11.08;93.29;101290.31;5054708;28;20049;-63
2021/11/14 01:18:29;;;;;;;10.70;7.25;;;;;;;11.09;93.21;101285.59;5045956;28;20524;-63
2021/11/14 01:20:58;;;;;;;11.65;7.15;;;;;;;11.04;92.53;101292.00;5038030;28;20060;-63
2021/11/14 01:23:27;;;;;;;11.48;7.03;;;;;;;10.86;93.58;101287.34;5055872;28;20496;-63
2021/11/14 01:25:54;;;;;;;14.43;7.28;;;;;;;10.92;93.82;101297.19;5051584;28;20060;-63
2021/11/14 01:28:22;;;;;;;10.75;7.07;;;;;;;10.76;94.43;101289.47;5054515;28;20045;-62
2021/11/14 01:30:53;;;;;;;13.30;7.65;;;;;;;10.93;94.67;101290.53;5036995;28;20493;-62
2021/11/14 01:33:23;;;;;;;13.57;7.80;;;;;;;10.82;94.14;101282.75;5037928;28;20072;-63
2021/11/14 01:35:53;;;;;;;10.73;6.87;;;;;;;10.78;94.58;101287.22;5057210;28;20049;-65
2021/11/14 01:38:21;;;;;;;9.50;6.95;;;;;;;10.89;94.68;101285.94;5056853;28;20048;-63
2021/11/14 01:41:08;;;;;;;10.85;7.45;;;;;;;10.69;95.07;101292.59;5075374;28;20040;-62
2021/11/14 01:43:54;;;;;;;11.55;7.15;;;;;;;10.74;95.30;101288.97;5076542;28;20053;-62
2021/11/14 01:46:22;;;;;;;13.50;7.28;;;;;;;10.72;95.05;101282.94;5073168;28;20056;-63
2021/11/14 01:48:51;;;;;;;10.05;6.68;;;;;;;10.62;95.49;101283.91;5038484;28;20053;-62
2021/11/14 01:51:19;;;;;;;11.98;6.63;;;;;;;10.75;95.53;101288.66;5044454;28;20053;-62
2021/11/14 01:53:48;;;;;;;13.13;6.80;;;;;;;10.81;94.89;101295.72;5047926;28;20049;-61
2021/11/14 01:56:16;;;;;;;13.07;7.20;;;;;;;10.94;94.91;101296.88;5056312;28;20068;-62
2021/11/14 01:58:45;;;;;;;11.48;6.20;;;;;;;10.86;93.86;101301.13;5056394;28;20163;-63
2021/11/14 02:01:17;;;;;;;12.00;7.63;;;;;;;10.68;95.05;101301.19;5055146;28;20057;-62
2021/11/14 02:03:49;;;;;;;11.85;6.75;;;;;;;10.81;94.81;101298.47;5038658;28;20049;-63
2021/11/14 02:06:18;;;;;;;12.13;7.25;;;;;;;10.88;94.93;101298.91;5061524;28;20049;-63
2021/11/14 02:08:45;;;;;;;13.30;6.38;;;;;;;11.07;93.94;101302.44;5063490;28;20061;-62
2021/11/14 02:11:15;;;;;;;11.93;6.70;;;;;;;11.02;93.13;101299.75;5062025;28;20053;-63
2021/11/14 02:13:43;;;;;;;;;;;;;;;10.99;94.07;101305.06;5050750;28;20060;-64
2021/11/14 02:16:11;;;;;;;11.88;6.78;;;;;;;10.81;94.93;101301.22;5038096;28;20285;-61
2021/11/14 02:18:39;;;;;;;12.15;6.80;;;;;;;10.87;94.76;101301.97;5056955;28;20131;-62
2021/11/14 02:21:06;;;;;;;12.23;6.70;;;;;;;10.99;93.86;101305.06;5057783;28;20404;-62
2021/11/14 02:23:36;;;;;;;13.60;6.63;;;;;;;10.81;94.50;101303.19;5036113;28;20059;-63
2021/11/14 02:26:03;;;;;;;12.97;6.80;;;;;;;10.94;94.31;101302.41;5055770;28;20049;-62
2021/11/14 02:28:31;;;;;;;10.85;6.72;;;;;;;10.87;93.78;101297.28;5055898;28;20052;-64
2021/11/14 02:30:59;;;;;;;10.38;6.57;;;;;;;10.79;94.61;101300.69;5055761;28;20056;-64
2021/11/14 02:33:28;;;;;;;10.05;6.00;;;;;;;10.99;93.66;101305.06;5055954;28;20049;-61
2021/11/14 02:35:58;;;;;;;9.60;6.18;;;;;;;10.70;95.15;101308.03;5049444;28;20557;-62
2021/11/14 02:38:26;;;;;;;13.05;7.40;;;;;;;10.54;96.66;101303.88;5056296;28;20053;-63
2021/11/14 02:40:54;;;;;;;13.00;6.50;;;;;;;10.39;98.05;101306.84;5073946;28;20063;-62
2021/11/14 02:43:25;;;;;;;15.60;6.53;;;;;;;10.37;98.51;101308.28;5075836;28;20049;-63
2021/11/14 02:45:52;;;;;;;11.70;6.32;;;;;;;10.37;98.51;101305.53;5074952;28;20049;-61
2021/11/14 02:48:20;;;;;;;10.90;6.00;;;;;;;10.71;98.70;101295.06;5075349;28;20487;-62
2021/11/14 02:50:50;;;;;;;15.57;6.53;;;;;;;10.70;97.65;101298.94;5074204;28;20503;-63
2021/11/14 02:53:18;;;;;;;13.00;6.47;;;;;;;10.60;97.15;101297.16;5074025;28;20464;-63
2021/11/14 02:55:45;;;;;;;9.10;5.80;;;;;;;10.55;98.25;101290.94;5075241;28;20053;-62
2021/11/14 02:58:14;;;;;;;12.32;6.47;;;;;;;10.59;98.04;101294.72;5075572;28;20055;-64
2021/11/14 03:00:49;;;;;;;10.68;6.10;;;;;;;10.45;98.60;101300.16;5073760;28;20063;-62
2021/11/14 03:03:18;;;;;;;10.35;6.63;;;;;;;10.38;100.00;101298.88;5073686;28;20048;-61
2021/11/14 03:05:45;;;;;;;11.68;6.57;;;;;;;10.27;100.00;101289.94;5050286;28;20059;-61
2021/11/14 03:08:12;;;;;;;16.63;6.85;;;;;;;10.45;100.00;101302.91;5054729;28;20057;-63
2021/11/14 03:10:41;;;;;;;10.23;6.38;;;;;;;10.34;100.00;101295.91;5048014;28;20057;-62
2021/11/14 03:13:12;;;;;;;12.98;6.70;;;;;;;10.41;100.00;101301.84;5035278;28;20064;-64
2021/11/14 03:15:43;;;;;;;11.07;6.80;;;;;;;10.44;99.63;101297.69;5034772;28;20060;-63
2021/11/14 03:18:10;;;;;;;11.52;6.72;;;;;;;10.53;99.79;101287.66;5035224;28;20041;-62
2021/11/14 03:20:40;;;;;;;10.07;6.13;;;;;;;10.52;99.07;101289.59;5034711;28;20090;-62
2021/11/14 03:23:07;;;;;;;;;;;;;;;10.49;98.81;101295.69;5035480;28;20042;-61
2021/11/14 03:25:35;;;;;;;10.93;5.95;;;;;;;10.99;97.44;101297.63;5034731;28;19921;-62
2021/11/14 03:28:04;;;;;;;11.55;6.63;;;;;;;10.99;95.62;101296.78;5033900;28;20045;-62
2021/11/14 03:30:33;;;;;;;14.47;6.83;;;;;;;10.81;96.01;101298.47;5066382;28;20046;-63
2021/11/14 03:33:06;;;;;;;14.50;6.90;;;;;;;10.82;96.71;101293.78;5035101;28;20049;-68
2021/11/14 03:35:54;;;;;;;10.93;6.32;;;;;;;10.90;95.29;101298.59;5034701;28;20057;-61
2021/11/14 03:38:43;;;;;;;10.65;6.38;;;;;;;10.91;95.74;101300.25;5034559;28;20052;-62
2021/11/14 03:41:13;;;;;;;12.27;6.20;;;;;;;10.81;95.72;101297.66;5036179;28;20057;-62
2021/11/14 03:43:41;;;;;;;9.88;6.40;;;;;;;10.91;95.80;101301.03;5054748;28;20496;-62
2021/11/14 03:46:09;;;;;;;11.88;6.32;;;;;;;11.03;94.42;101297.84;5054263;28;20068;-62
2021/11/14 03:48:38;;;;;;;11.25;6.95;;;;;;;10.92;95.21;101297.19;5049540;28;20057;-62
2021/11/14 03:51:06;;;;;;;11.35;6.47;;;;;;;11.16;94.88;101299.78;5034630;28;20052;-62
2021/11/14 03:53:34;;;;;;;10.52;6.43;;;;;;;11.03;93.79;101300.59;5037427;28;20049;-63
2021/11/14 03:56:03;;;;;;;12.13;6.50;;;;;;;11.11;94.30;101303.47;5038541;28;20068;-63
2021/11/14 03:58:31;;;;;;;9.82;6.55;;;;;;;11.27;93.01;101304.84;5038853;28;20046;-62
2021/11/14 04:01:00;;;;;;;10.60;6.40;;;;;;;10.82;94.45;101302.88;5039372;28;20065;-63
2021/11/14 04:03:29;;;;;;;12.80;6.78;;;;;;;10.81;95.32;101298.47;5037559;28;20053;-62
2021/11/14 04:06:00;;;;;;;11.13;6.60;;;;;;;10.97;94.95;101302.63;5049308;28;20049;-63
2021/11/14 04:08:27;;;;;;;10.18;6.57;;;;;;;11.06;94.47;101299.97;5038906;28;20052;-62
2021/11/14 04:10:57;;;;;;;10.43;6.82;;;;;;;10.83;94.78;101301.75;5053574;28;20520;-63
2021/11/14 04:13:30;;;;;;;12.75;7.20;;;;;;;10.44;97.29;101308.72;5038697;28;20053;-62
2021/11/14 04:16:00;;;;;;;15.25;7.28;;;;;;;10.55;98.10;101297.25;5036952;28;20053;-64
2021/11/14 04:18:28;;;;;;;13.43;7.28;;;;;;;10.44;97.99;101305.97;5038718;28;20049;-62
2021/11/14 04:20:56;;;;;;;13.27;7.68;;;;;;;10.51;98.35;101306.41;5038358;28;20045;-63
2021/11/14 04:23:24;;;;;;;11.38;7.38;;;;;;;10.59;97.45;101303.78;5038306;28;20508;-63
2021/11/14 04:25:51;;;;;;;11.48;7.15;;;;;;;10.53;97.94;101302.22;5038038;28;20061;-61
2021/11/14 04:28:22;;;;;;;12.30;7.20;;;;;;;10.69;97.45;101294.53;5038187;28;20057;-64
2021/11/14 04:30:50;;;;;;;14.13;7.75;;;;;;;10.69;96.96;101298.13;5036467;28;20060;-62
2021/11/14 04:33:18;;;;;;;12.70;7.00;;;;;;;10.80;96.16;101290.50;5038350;28;20052;-64
2021/11/14 04:35:47;;;;;;;12.38;7.22;;;;;;;10.55;97.41;101288.19;5037728;28;20077;-63
2021/11/14 04:38:14;;;;;;;12.45;7.80;;;;;;;10.74;97.27;101291.72;5037718;28;20041;-63
2021/11/14 04:40:42;;;;;;;14.98;7.82;;;;;;;10.69;96.87;101295.38;5075502;28;20427;-63
2021/11/14 04:43:11;;;;;;;14.15;7.50;;;;;;;10.69;96.80;101295.38;5077647;28;20057;-63
2021/11/14 04:45:39;;;;;;;11.30;7.37;;;;;;;10.58;96.45;101306.84;5077443;28;20040;-63
2021/11/14 04:48:07;;;;;;;12.10;7.47;;;;;;;10.51;97.04;101304.47;5076447;28;20060;-63
2021/11/14 04:50:35;;;;;;;11.88;7.70;;;;;;;10.36;98.64;101306.63;5057602;28;20056;-65
2021/11/14 04:53:04;;;;;;;11.05;7.63;;;;;;;10.74;97.40;101303.53;5056313;28;20409;-63
2021/11/14 04:55:33;;;;;;;12.48;7.22;;;;;;;10.69;95.84;101303.63;5057802;28;20053;-62
2021/11/14 04:58:01;;;;;;;13.05;7.72;;;;;;;10.66;96.65;101300.66;5057356;28;20052;-64
2021/11/14 05:00:35;;;;;;;11.52;7.35;;;;;;;10.59;96.47;101308.47;5055973;28;20413;-62
2021/11/14 05:03:02;;;;;;;11.50;7.75;;;;;;;10.61;97.44;101304.31;5057448;28;20063;-62
2021/11/14 05:05:30;;;;;;;12.77;7.50;;;;;;;10.73;97.01;101307.44;5054386;28;20049;-62
2021/11/14 05:07:58;;;;;;;12.48;7.45;;;;;;;10.70;95.94;101302.53;5072483;28;20417;-63
2021/11/14 05:10:25;;;;;;;12.73;7.43;;;;;;;10.79;95.41;101299.91;5036073;28;20046;-62
2021/11/14 05:12:52;;;;;;;10.48;7.30;;;;;;;10.88;95.16;101298.91;5036132;28;20057;-61
2021/11/14 05:15:20;;;;;;;13.07;7.57;;;;;;;10.84;95.31;101303.41;5051991;28;20057;-63
2021/11/14 05:17:47;;;;;;;10.73;7.55;;;;;;;10.64;95.63;101292.69;5037374;28;20064;-64
2021/11/14 05:20:14;;;;;;;14.02;7.88;;;;;;;10.74;96.42;101287.00;5037302;28;20062;-64
2021/11/14 05:22:41;;;;;;;11.38;7.28;;;;;;;10.73;95.79;101296.41;5037026;28;20049;-62
2021/11/14 05:25:09;;;;;;;14.07;7.55;;;;;;;10.78;96.57;101289.97;5037134;28;20053;-64
2021/11/14 05:27:37;;;;;;;14.65;7.88;;;;;;;10.54;97.88;101295.63;5037660;28;20053;-63
2021/11/14 05:30:08;;;;;;;13.48;8.13;;;;;;;10.57;97.92;101292.25;5053689;28;20068;-63
2021/11/14 05:32:36;;;;;;;12.15;8.02;;;;;;;10.66;97.08;101292.38;5036070;28;20061;-63
2021/11/14 05:35:04;;;;;;;12.20;7.93;;;;;;;10.61;97.90;101292.47;5037057;28;20045;-63
2021/11/14 05:37:32;;;;;;;11.20;7.63;;;;;;;10.83;97.16;101293.47;5036533;28;20060;-63
2021/11/14 05:39:59;;;;;;;16.70;8.10;;;;;;;10.66;97.68;101295.16;5062937;28;20044;-63
2021/11/14 05:42:26;;;;;;;16.05;8.10;;;;;;;10.58;98.71;101290.31;5075023;28;20056;-63
2021/11/14 05:44:54;;;;;;;13.18;8.25;;;;;;;10.56;99.09;101292.56;5076651;28;20056;-64
2021/11/14 05:47:21;;;;;;;16.15;8.55;;;;;;;10.64;100.00;101298.19;5076240;28;20055;-63
2021/11/14 05:49:48;;;;;;;12.90;8.60;;;;;;;10.67;99.77;101297.59;5061535;28;20051;-64
2021/11/14 05:52:15;;;;;;;15.50;9.10;;;;;;;10.86;98.94;101301.13;5056261;28;20045;-63
2021/11/14 05:54:42;;;;;;;19.35;8.77;;;;;;;10.84;98.47;101306.16;5055193;28;20045;-64
2021/11/14 05:57:11;;;;;;;13.75;8.45;;;;;;;10.75;98.17;101302.44;5056111;28;20048;-62
2021/11/14 06:05:18;;;;;;;13.82;8.30;;;;;;;10.64;98.72;101309.22;5056579;28;20060;-62
2021/11/14 06:07:47;;;;;;;13.02;8.45;;;;;;;10.48;99.96;101323.53;5044346;28;20507;-64
2021/11/14 06:10:16;;;;;;;13.77;7.85;;;;;;;10.82;98.08;101315.84;5037886;28;20041;-63
2021/11/14 06:12:45;;;;;;;12.80;8.40;;;;;;;10.77;97.54;101315.91;5054847;28;20041;-62
2021/11/14 06:15:15;;;;;;;13.02;8.43;;;;;;;10.70;98.54;101319.06;5055961;28;20045;-64
2021/11/14 06:17:42;;;;;;;13.85;8.23;;;;;;;10.79;98.55;101319.19;5057571;28;20060;-64
2021/11/14 06:20:11;;;;;;;13.48;8.48;;;;;;;10.63;98.80;101318.63;5056235;28;20480;-63
2021/11/14 06:22:39;;;;;;;12.95;8.30;;;;;;;10.60;100.00;101316.44;5039434;28;20044;-63
2021/11/14 06:25:07;;;;;;;13.63;8.82;;;;;;;10.47;100.00;101330.16;5055963;28;20439;-63
2021/11/14 06:27:35;;;;;;;17.23;9.00;;;;;;;10.36;100.00;101323.97;5055609;28;20060;-64
2021/11/14 06:30:05;;;;;;;16.23;9.07;;;;;;;10.50;100.00;101338.63;5055825;28;20052;-63
2021/11/14 06:32:32;;;;;;;13.48;8.57;;;;;;;10.62;100.00;101340.94;5055608;28;20060;-63
2021/11/14 06:35:00;;;;;;;17.08;9.13;;;;;;;10.53;100.00;101345.50;5055823;28;20060;-63
2021/11/14 06:37:28;;;;;;;13.65;8.98;;;;;;;10.66;100.00;101340.06;5055147;28;20053;-63
2021/11/14 06:39:57;;;;;;;13.65;8.00;;;;;;;11.16;100.00;101344.72;5068519;28;20503;-70
2021/11/14 06:42:24;;;;;;;14.40;8.43;;;;;;;10.81;99.74;101344.53;5074388;28;20056;-63
2021/11/14 06:44:51;;;;;;;12.30;8.43;;;;;;;10.94;100.00;101341.81;5075667;28;20060;-63
2021/11/14 06:47:18;;;;;;;12.88;8.30;;;;;;;11.15;99.70;101347.78;5073561;28;20143;-63
2021/11/14 06:49:52;;;;;;;14.43;8.93;;;;;;;10.91;98.83;101345.16;5060835;28;20052;-64
2021/11/14 06:52:20;;;;;;;17.60;9.30;;;;;;;10.89;99.75;101349.34;5054684;28;20052;-63
2021/11/14 06:54:48;;;;;;;13.55;9.00;;;;;;;11.05;98.46;101347.97;5054203;28;20055;-63
2021/11/14 06:57:19;;;;;;;12.95;8.98;;;;;;;10.54;100.00;101353.47;5055122;28;20072;-63
2021/11/14 06:59:47;;;;;;;16.13;9.07;;;;;;;10.45;100.00;101362.66;5055457;28;20056;-64
2021/11/14 07:02:14;;;;;;;16.20;9.60;;;;;;;10.36;100.00;101365.28;5054250;28;20049;-64
2021/11/14 07:04:42;;;;;;;16.38;10.70;;;;;;;10.48;100.00;101364.84;5054027;28;20067;-64
2021/11/14 07:07:10;;;;;;;16.08;8.45;;;;;;;10.41;100.00;101361.66;5050068;28;20160;-64
2021/11/14 07:09:37;;;;;;;13.82;9.20;;;;;;;10.40;100.00;101369.09;5035085;28;20060;-64
2021/11/14 07:12:05;;;;;;;13.35;9.38;;;;;;;10.37;100.00;101368.84;5053440;28;20068;-64
2021/11/14 07:14:32;;;;;;;12.27;8.55;;;;;;;10.48;100.00;101371.16;5056318;28;20052;-64
2021/11/14 07:17:00;;;;;;;12.48;8.68;;;;;;;10.42;100.00;101377.03;5054817;28;20048;-62
2021/11/14 07:19:27;;;;;;;12.55;8.50;;;;;;;10.76;100.00;101381.22;5055743;28;20045;-62
2021/11/14 07:21:56;;;;;;;11.52;8.20;;;;;;;10.81;100.00;101377.59;5055046;28;20068;-62
2021/11/14 07:24:23;;;;;;;16.10;8.70;;;;;;;10.61;100.00;101384.22;5055240;28;20049;-63
2021/11/14 07:26:51;;;;;;;14.88;9.30;;;;;;;10.53;100.00;101384.06;5048653;28;20410;-62
2021/11/14 07:29:23;;;;;;;10.77;8.15;;;;;;;10.67;100.00;101387.72;5036393;28;20512;-63
2021/11/14 07:31:51;;;;;;;12.13;8.27;;;;;;;10.90;100.00;101387.63;5040253;28;20046;-64
2021/11/14 07:34:25;;;;;;;10.95;7.72;;;;;;;11.01;99.77;101394.63;5055374;28;20045;-63
2021/11/14 07:37:02;;;;;;;14.18;7.32;;;;;;;11.21;98.18;101385.19;5054832;28;20044;-61
2021/11/14 07:39:33;;;;;;;11.23;7.53;;;;;;;11.18;97.02;101386.63;5064574;28;20044;-62
2021/11/14 07:42:01;;;;;;;10.48;7.35;;;;;;;11.34;96.20;101393.53;5075113;28;20053;-64
2021/11/14 07:44:28;;;;;;;10.95;7.10;;;;;;;11.09;96.53;101404.13;5075046;28;20492;-64
2021/11/14 07:46:55;;;;;;;11.00;8.38;;;;;;;10.80;98.18;101396.06;5074756;28;20495;-64
2021/11/14 07:49:23;;;;;;;12.90;8.32;;;;;;;10.91;98.32;101404.97;5058554;28;20053;-63
2021/11/14 07:51:51;;;;;;;12.68;8.15;;;;;;;11.00;98.15;101409.50;5054825;28;20045;-66
2021/11/14 07:54:19;;;;;;;13.35;8.27;;;;;;;10.91;98.87;101407.75;5053421;28;20045;-64
2021/11/14 07:56:46;;;;;;;14.88;8.63;;;;;;;11.08;97.89;101411.59;5054443;28;20048;-64
2021/11/14 07:59:13;;;;;;;11.60;7.75;;;;;;;11.21;97.01;101413.56;5055298;28;20064;-64
2021/11/14 08:01:40;;;;;;;13.65;8.45;;;;;;;11.34;96.30;101420.28;5053242;28;20045;-64
2021/11/14 08:04:08;;;;;;;13.60;8.82;;;;;;;10.83;97.86;101416.66;5062494;28;20381;-64
2021/11/14 08:06:40;;;;;;;15.70;9.48;;;;;;;11.05;98.03;101420.44;5056216;28;20056;-64
2021/11/14 08:09:07;;;;;;;10.85;8.25;;;;;;;10.96;97.60;101426.97;5041334;28;20064;-64
2021/11/14 08:11:34;;;;;;;12.93;9.02;;;;;;;11.02;97.66;101428.50;5059501;28;20044;-65
2021/11/14 08:14:03;;;;;;;12.30;9.05;;;;;;;10.93;98.08;101425.59;5054814;28;20064;-64
2021/11/14 08:16:30;;;;;;;16.80;9.45;;;;;;;10.93;98.29;101424.81;5053115;28;20507;-62
2021/11/14 08:18:57;;;;;;;13.43;8.73;;;;;;;11.15;97.37;101430.50;5086161;28;20158;-62
2021/11/14 08:21:25;;;;;;;14.38;8.27;;;;;;;11.26;95.95;101421.75;5060016;28;20052;-63
2021/11/14 08:23:52;;;;;;;12.95;8.52;;;;;;;11.46;95.15;101425.31;5074462;28;20071;-63
2021/11/14 08:26:20;;;;;;;12.30;8.02;;;;;;;11.20;96.00;101428.50;5054628;28;20075;-62
2021/11/14 08:28:48;;;;;;;15.63;6.82;;;;;;;11.16;95.28;101424.69;5046715;28;20053;-62
2021/11/14 08:31:20;;;;;;;9.07;6.03;;;;;;;11.20;94.71;101431.25;5054212;28;20377;-65
2021/11/14 08:33:48;;;;;;;9.63;6.45;;;;;;;11.22;94.69;101433.72;5086124;28;20063;-65
2021/11/14 08:36:16;;;;;;;9.75;6.68;;;;;;;11.15;94.50;101431.34;5054316;28;20469;-65
2021/11/14 08:38:44;;;;;;;10.38;6.22;;;;;;;11.34;93.95;101431.31;5060519;28;20056;-66
2021/11/14 08:41:12;;;;;;;9.65;5.93;;;;;;;11.38;92.52;101434.28;5076759;28;20048;-64
2021/11/14 08:43:40;;;;;;;10.25;5.85;;;;;;;11.34;92.43;101421.09;5060129;28;20060;-64
2021/11/14 08:46:09;;;;;;;9.40;6.32;;;;;;;11.48;91.85;101423.06;5076877;28;20044;-65
2021/11/14 08:48:37;;;;;;;9.95;6.32;;;;;;;11.79;90.50;101430.53;5076398;28;20063;-64
2021/11/14 08:51:05;;;;;;;9.73;5.60;;;;;;;11.58;90.19;101425.63;5077188;28;20036;-64
2021/11/14 08:53:32;;;;;;;7.65;5.68;;;;;;;11.50;90.86;101418.91;5055792;28;20052;-65
2021/11/14 08:56:01;;;;;;;8.85;5.78;;;;;;;11.55;91.19;101423.50;5057934;28;20049;-65
2021/11/14 08:58:30;;;;;;;;;;;;;;;11.42;90.83;101427.84;5058144;28;20416;-62
2021/11/14 09:00:58;;;;;;;12.70;9.38;;;;;;;11.56;90.89;101425.94;5056255;28;20526;-62
2021/11/14 09:03:28;;;;;;;13.77;6.22;;;;;;;11.70;90.16;101431.56;5057024;28;20147;-64
2021/11/14 09:05:56;;;;;;;8.57;6.05;;;;;;;11.69;89.80;101433.50;5057238;28;20057;-64
2021/11/14 09:08:23;;;;;;;9.80;6.45;;;;;;;11.59;89.83;101430.06;5056070;28;20060;-64
2021/11/14 09:10:51;;;;;;;10.70;6.18;;;;;;;11.60;90.16;101427.00;5055005;28;20049;-65
2021/11/14 09:13:18;;;;;;;11.05;6.63;;;;;;;11.54;90.80;101427.38;5056915;28;20049;-64
2021/11/14 09:15:46;;;;;;;9.75;5.68;;;;;;;11.40;91.62;101424.59;5048004;28;20084;-64
2021/11/14 09:18:15;;;;;;;7.72;5.63;;;;;;;11.49;90.30;101431.03;5073534;28;20068;-65
2021/11/14 09:20:44;;;;;;;9.45;6.18;;;;;;;11.26;91.11;101435.56;5060046;28;20059;-65
2021/11/14 09:23:13;;;;;;;9.32;6.32;;;;;;;11.48;91.23;101439.63;5065473;28;20094;-62
2021/11/14 09:25:40;;;;;;;10.68;6.88;;;;;;;11.43;90.86;101436.94;5066641;28;20056;-64
2021/11/14 09:28:12;;;;;;;8.25;5.88;;;;;;;11.61;89.98;101438.84;5068399;28;20400;-62
2021/11/14 09:30:44;;;;;;;9.77;5.68;;;;;;;11.43;90.01;101443.28;5054087;28;20413;-62
2021/11/14 09:33:12;;;;;;;7.57;5.50;;;;;;;11.17;91.21;101453.09;5065028;28;20060;-63
2021/11/14 09:35:39;;;;;;;7.93;5.20;;;;;;;11.17;90.86;101455.84;5054117;28;20055;-62
2021/11/14 09:38:07;;;;;;;9.38;5.68;;;;;;;11.10;91.60;101450.72;5052873;28;20045;-62
2021/11/14 09:40:36;;;;;;;7.70;4.85;;;;;;;11.18;90.46;101460.25;5056742;28;20049;-61
2021/11/14 09:43:04;;;;;;;7.13;4.93;;;;;;;10.99;91.10;101452.00;5036688;28;20061;-63
2021/11/14 09:45:33;;;;;;;8.38;5.10;;;;;;;11.28;91.24;101460.06;5036519;28;20042;-61
2021/11/14 09:48:01;;;;;;;9.40;4.82;;;;;;;11.31;90.53;101446.50;5055873;28;20049;-61
2021/11/14 09:50:34;;;;;;;7.80;4.78;;;;;;;11.47;89.60;101451.78;5042604;28;20053;-63
2021/11/14 09:53:03;;;;;;;7.93;5.00;;;;;;;11.74;89.25;101440.84;5040907;28;20044;-63
2021/11/14 09:55:35;;;;;;;6.78;4.80;;;;;;;11.65;88.26;101448.19;5056311;28;20055;-65
2021/11/14 09:58:04;;;;;;;6.28;4.03;;;;;;;11.93;88.55;101450.69;5075224;28;20403;-62
2021/11/14 10:00:33;;;;;;;9.07;4.50;;;;;;;11.92;86.92;101445.50;5058549;28;20049;-63
2021/11/14 10:03:01;;;;;;;8.90;4.40;;;;;;;12.10;87.11;101450.91;5088583;28;20290;-69
2021/11/14 10:05:28;;;;;;;8.15;4.47;;;;;;;12.43;85.70;101449.69;5057838;28;20045;-64
2021/11/14 10:08:02;;;;;;;9.27;4.55;;;;;;;12.29;84.88;101456.38;5051975;28;20551;-63
2021/11/14 10:10:33;;;;;;;7.90;5.00;;;;;;;12.71;84.39;101453.25;5061926;28;20049;-64
2021/11/14 10:13:21;;;;;;;9.05;5.03;;;;;;;12.36;84.90;101445.72;5055315;28;20057;-64
2021/11/14 10:15:51;;;;;;;8.43;5.75;;;;;;;12.23;84.19;101447.34;5054832;28;20052;-63
2021/11/14 10:18:22;;;;;;;9.95;7.10;;;;;;;12.15;85.09;101450.03;5054167;28;20054;-63
2021/11/14 10:20:54;;;;;;;10.43;7.10;;;;;;;11.58;89.16;101444.97;5044423;28;20493;-63
2021/11/14 10:23:21;;;;;;;10.63;6.88;;;;;;;11.72;89.67;101446.66;5036333;28;20052;-63
2021/11/14 10:25:50;;;;;;;10.32;7.40;;;;;;;12.01;87.97;101449.97;5040768;28;20060;-62
2021/11/14 10:28:18;;;;;;;11.18;7.43;;;;;;;11.74;89.01;101447.19;5075858;28;20496;-61
2021/11/14 10:30:50;;;;;;;11.27;7.85;;;;;;;12.01;88.06;101449.97;5051312;28;20046;-63
2021/11/14 10:33:18;;;;;;;12.15;7.55;;;;;;;11.91;88.40;101452.13;5063777;28;20124;-61
2021/11/14 10:35:48;;;;;;;11.20;8.07;;;;;;;11.85;88.19;101447.81;5057714;28;20044;-64
2021/11/14 10:38:17;;;;;;;;;;;;;;;11.76;88.95;101460.69;5045484;28;20053;-64
2021/11/14 10:40:47;;;;;;;13.18;8.65;;;;;;;11.95;87.94;101451.22;5077005;28;19925;-62
2021/11/14 10:43:16;;;;;;;;;;;;;;;11.84;88.75;101452.53;5076418;28;20071;-63
2021/11/14 10:45:44;;;;;;;12.43;8.48;;;;;;;11.79;88.72;101452.63;5051469;28;20407;-62
2021/11/14 10:48:18;;;;;;;17.67;10.13;;;;;;;11.55;89.92;101457.44;5028806;28;20049;-61
2021/11/14 10:50:48;;;;;;;16.05;10.18;;;;;;;11.63;90.07;101453.16;5053374;28;20044;-64
2021/11/14 10:53:17;;;;;;;;;;;;;;;11.66;89.65;101450.66;5050568;28;20068;-62
2021/11/14 10:55:52;;;;;;;15.13;10.37;;;;;;;11.66;89.50;101444.31;5042669;28;19927;-61
2021/11/14 10:58:23;;;;;;;17.25;9.85;;;;;;;11.72;88.56;101454.94;5055285;28;20060;-62
2021/11/14 11:00:53;;;;;;;15.77;10.45;;;;;;;11.91;87.74;101450.19;5053337;28;20053;-62
2021/11/14 11:03:21;;;;;;;15.63;9.70;;;;;;;11.95;87.54;101448.47;5034180;28;20052;-62
2021/11/14 11:05:48;;;;;;;15.85;9.85;;;;;;;12.15;86.72;101450.03;5054784;28;20044;-63
2021/11/14 11:08:22;;;;;;;15.45;10.05;;;;;;;12.27;85.70;101450.34;5053805;28;20500;-62
2021/11/14 11:10:57;;;;;;;13.95;9.50;;;;;;;12.12;85.95;101459.72;5057964;28;20409;-65
2021/11/14 11:13:42;;;;;;;14.35;9.90;;;;;;;12.16;86.05;101454.41;5043780;28;20057;-66
2021/11/14 11:16:15;;;;;;;15.60;10.60;;;;;;;12.16;85.44;101451.66;5066699;28;20057;-65
2021/11/14 11:18:44;;;;;;;14.75;9.95;;;;;;;12.02;85.62;101454.41;5034748;28;20049;-64
2021/11/14 11:21:13;;;;;;;16.30;10.70;;;;;;;12.04;85.82;101454.09;5033583;28;20056;-64
2021/11/14 11:23:45;;;;;;;17.00;10.27;;;;;;;12.06;86.33;101460.13;5036799;28;20053;-66
2021/11/14 11:26:15;;;;;;;19.85;10.32;;;;;;;12.16;85.69;101457.16;5035039;28;20076;-65
2021/11/14 11:28:45;;;;;;;17.10;10.30;;;;;;;12.11;85.49;101454.50;5079660;28;20075;-65
2021/11/14 11:31:19;;;;;;;15.25;10.95;;;;;;;11.96;85.84;101452.03;5051479;28;20052;-65
2021/11/14 11:33:49;;;;;;;15.88;10.90;;;;;;;12.15;85.63;101456.34;5043443;28;20056;-66